Time;durP1;ratioP1;P1;durP2;ratioP2;P2;SDS_P1;SDS_P2;PMS_P1;PMS_P2;Temp;Humidity;BMP_temperature;BMP_pressure;BME280_temperature;BME280_humidity;BME280_pressure;Samples;Min_cycle;Max_cycle;Signal;HPM_P1;HPM_P2
2022/12/14 00:00:44;;;;;;;45.43;24.40;;;3.60;97.50;;;3.40;63.08;94651.97;5077942;28;20485;-57
2022/12/14 00:03:12;;;;;;;42.33;23.97;;;3.60;97.80;;;3.39;62.78;94658.09;5080318;28;20538;-58
2022/12/14 00:05:39;;;;;;;42.73;23.50;;;3.60;97.50;;;3.40;63.00;94664.97;5078054;28;21021;-56
2022/12/14 00:08:06;;;;;;;45.80;23.83;;;3.60;97.90;;;3.39;62.97;94663.31;5076905;28;20537;-55
2022/12/14 00:10:34;;;;;;;44.60;24.80;;;3.60;98.00;;;3.38;63.71;94666.84;5074904;28;20870;-56
2022/12/14 00:13:03;;;;;;;48.40;24.87;;;3.60;97.90;;;3.38;63.45;94672.88;5074253;28;20524;-54
2022/12/14 00:15:31;;;;;;;41.73;24.50;;;3.60;98.10;;;3.38;63.86;94662.47;5080895;28;20481;-57
2022/12/14 00:17:58;;;;;;;46.37;24.67;;;3.60;98.10;;;3.38;64.12;94666.84;5075205;28;20550;-55
2022/12/14 00:20:26;;;;;;;49.03;25.17;;;3.60;98.50;;;3.37;64.13;94660.81;5079205;28;20581;-56
2022/12/14 00:22:54;;;;;;;53.73;26.57;;;3.60;98.30;;;3.38;63.68;94672.06;5078498;28;20471;-57
2022/12/14 00:25:21;;;;;;;49.40;24.83;;;3.60;98.40;;;3.39;63.33;94676.31;5077413;28;20474;-55
2022/12/14 00:27:48;;;;;;;50.83;27.33;;;3.60;98.30;;;3.39;64.37;94668.50;5078254;28;20458;-55
2022/12/14 00:30:18;;;;;;;48.47;25.67;;;3.60;98.60;;;3.37;64.12;94671.22;5077527;28;20490;-59
2022/12/14 00:32:45;;;;;;;46.33;25.27;;;3.60;98.70;;;3.37;63.79;94671.22;5078468;28;20461;-56
2022/12/14 00:35:15;;;;;;;43.53;25.80;;;3.60;98.70;;;3.37;64.68;94670.38;5075016;28;21083;-58
2022/12/14 00:37:42;;;;;;;44.10;24.10;;;3.60;98.70;;;3.36;64.09;94669.56;5078183;28;20454;-55
2022/12/14 00:40:10;;;;;;;46.00;26.00;;;3.60;99.00;;;3.36;64.63;94674.75;5080156;28;20474;-56
2022/12/14 00:42:37;;;;;;;40.50;24.60;;;3.60;99.10;;;3.37;64.94;94678.19;5081932;28;20976;-57
2022/12/14 00:45:07;;;;;;;46.20;25.07;;;3.60;99.10;;;3.37;65.02;94678.19;5075493;28;20478;-57
2022/12/14 00:47:36;;;;;;;44.97;24.67;;;3.60;99.30;;;3.37;64.72;94679.00;5080697;28;20578;-58
2022/12/14 00:50:03;;;;;;;42.93;25.27;;;3.60;99.10;;;3.37;65.04;94679.00;5078222;28;20494;-56
2022/12/14 00:52:30;;;;;;;58.63;28.03;;;3.60;99.30;;;3.37;65.21;94685.97;5080277;28;20455;-54
2022/12/14 00:54:58;;;;;;;49.70;26.93;;;3.60;99.40;;;3.38;64.75;94682.47;5076039;28;20516;-56
2022/12/14 00:57:25;;;;;;;49.60;26.87;;;3.60;99.50;;;3.38;65.43;94682.47;5077165;28;20451;-55
2022/12/14 00:59:52;;;;;;;38.57;23.20;;;3.60;99.90;;;3.36;65.30;94681.69;5074830;28;20541;-59
2022/12/14 01:02:19;;;;;;;45.00;24.83;;;3.60;99.60;;;3.33;65.42;94679.31;5079249;28;20454;-56
2022/12/14 01:04:48;;;;;;;44.23;25.17;;;3.60;99.90;;;3.32;65.53;94677.66;5077586;28;20486;-54
2022/12/14 01:07:15;;;;;;;36.13;23.27;;;3.60;99.90;;;3.31;66.09;94674.22;5076895;28;20538;-57
2022/12/14 01:09:43;;;;;;;36.93;21.17;;;3.50;99.90;;;3.28;65.91;94678.78;5073321;28;20979;-58
2022/12/14 01:12:10;;;;;;;42.80;22.27;;;3.50;99.90;;;3.27;65.57;94670.16;5078607;28;20458;-58
2022/12/14 01:14:37;;;;;;;28.83;16.50;;;3.50;99.90;;;3.22;65.41;94667.88;5076902;28;20477;-58
2022/12/14 01:17:05;;;;;;;27.37;16.37;;;3.50;99.60;;;3.15;65.97;94669.19;5080681;28;20614;-55
2022/12/14 01:19:33;;;;;;;21.43;11.63;;;3.40;99.90;;;3.07;65.71;94671.47;5076534;28;20834;-56
2022/12/14 01:22:02;;;;;;;21.90;12.10;;;3.40;99.90;;;2.99;65.67;94671.09;5078878;28;20483;-55
2022/12/14 01:24:29;;;;;;;14.73;11.00;;;3.30;99.80;;;2.93;66.15;94671.50;5077461;28;20489;-57
2022/12/14 01:26:56;;;;;;;14.87;10.00;;;3.20;99.80;;;2.86;65.33;94661.50;5079951;28;20986;-55
2022/12/14 01:29:23;;;;;;;12.47;8.97;;;3.20;99.90;;;2.79;66.26;94657.66;5073983;28;20494;-55
2022/12/14 01:31:51;;;;;;;10.70;8.80;;;3.10;99.90;;;2.76;67.03;94654.41;5080076;28;20493;-56
2022/12/14 01:34:19;;;;;;;13.50;10.03;;;3.00;99.90;;;2.74;66.22;94651.06;5073661;28;20820;-58
2022/12/14 01:36:46;;;;;;;13.40;8.70;;;3.00;99.90;;;2.69;66.48;94644.41;5080712;28;20461;-55
2022/12/14 01:39:15;;;;;;;9.30;8.07;;;3.00;99.90;;;2.62;66.14;94645.75;5077329;28;20872;-53
2022/12/14 01:41:43;;;;;;;10.53;7.27;;;2.90;99.90;;;2.56;66.05;94650.50;5078404;28;20838;-58
2022/12/14 01:44:57;;;;;;;11.90;8.20;;;2.90;99.90;;;2.47;67.17;94644.94;5084135;28;20457;-57
2022/12/14 01:47:34;;;;;;;10.03;7.60;;;2.80;99.90;;;2.36;67.09;94652.56;5078671;28;20462;-57
2022/12/14 01:50:08;;;;;;;9.93;6.70;;;2.70;99.90;;;2.25;67.05;94639.44;5077020;28;20489;-56
2022/12/14 01:52:38;;;;;;;9.80;7.40;;;2.60;99.90;;;2.17;66.75;94637.31;5076893;28;20449;-56
2022/12/14 01:55:09;;;;;;;12.30;7.07;;;2.50;99.90;;;2.10;67.45;94631.66;5076429;28;20475;-56
2022/12/14 01:57:38;;;;;;;9.53;6.93;;;2.40;99.90;;;2.03;68.38;94626.94;5086746;28;21080;-55
2022/12/14 02:00:08;;;;;;;11.93;7.33;;;2.40;99.90;;;1.96;68.69;94629.06;5080981;28;20536;-57
2022/12/14 02:02:36;;;;;;;9.67;7.03;;;2.30;99.90;;;1.96;68.25;94640.28;5086695;28;20888;-57
2022/12/14 02:05:04;;;;;;;12.67;7.83;;;2.30;99.90;;;1.96;68.23;94642.03;5079925;28;20557;-55
2022/12/14 02:07:31;;;;;;;10.47;6.80;;;2.30;99.90;;;1.93;68.29;94639.63;5081810;28;20956;-57
2022/12/14 02:10:00;;;;;;;12.10;7.40;;;2.30;99.90;;;1.90;68.09;94632.03;5071307;28;20458;-58
2022/12/14 02:12:31;;;;;;;8.80;7.10;;;2.20;99.90;;;1.87;67.82;94634.81;5082594;28;20461;-60
2022/12/14 02:14:59;;;;;;;9.67;7.30;;;2.20;99.90;;;1.83;67.99;94628.16;5077484;28;20483;-58
2022/12/14 02:17:26;;;;;;;12.07;7.87;;;2.20;99.90;;;1.81;69.60;94627.41;5082883;28;20446;-57
2022/12/14 02:19:53;;;;;;;8.10;6.80;;;2.10;99.90;;;1.82;68.83;94621.31;5078676;28;20994;-55
2022/12/14 02:23:03;;;;;;;8.83;6.77;;;2.10;99.90;;;1.84;69.13;94624.63;5079137;28;20538;-55
2022/12/14 02:26:33;;;;;;;15.97;7.90;;;2.10;99.90;;;1.84;70.02;94616.84;5057607;28;20482;-57
2022/12/14 02:29:35;;;;;;;12.33;6.30;;;2.20;99.90;;;1.87;69.39;94609.72;5062505;28;20637;-58
2022/12/14 02:32:15;;;;;;;20.00;7.70;;;2.20;99.90;;;1.91;68.47;94612.97;5077798;28;20484;-57
2022/12/14 02:34:51;;;;;;;10.00;6.73;;;2.20;99.90;;;1.93;67.78;94617.13;5081234;28;20473;-58
2022/12/14 02:37:22;;;;;;;8.57;7.10;;;2.20;99.90;;;1.93;68.49;94614.53;5079938;28;20460;-56
2022/12/14 02:39:57;;;;;;;8.80;6.50;;;2.30;99.90;;;1.98;68.29;94609.06;5080841;28;21047;-57
2022/12/14 02:42:29;;;;;;;7.80;6.60;;;2.30;99.90;;;1.99;67.88;94610.72;5083634;28;20449;-57
2022/12/14 02:45:01;;;;;;;8.37;6.63;;;2.30;99.90;;;2.00;67.51;94614.16;5080889;28;20469;-57
2022/12/14 02:47:34;;;;;;;8.50;6.90;;;2.30;99.90;;;2.01;69.37;94603.69;5079003;28;20470;-58
2022/12/14 02:50:05;;;;;;;10.17;7.27;;;2.30;99.90;;;2.05;69.20;94610.34;5081165;28;20478;-58
2022/12/14 02:52:40;;;;;;;11.93;7.33;;;2.30;99.90;;;2.09;68.22;94598.88;5081536;28;20891;-55
2022/12/14 02:55:10;;;;;;;15.73;7.37;;;2.40;99.90;;;2.11;68.07;94599.59;5083265;28;20492;-54
2022/12/14 02:57:39;;;;;;;11.50;7.30;;;2.40;99.90;;;2.13;67.71;94597.72;5084137;28;20469;-56
2022/12/14 03:00:10;;;;;;;12.03;7.83;;;2.40;99.90;;;2.14;67.63;94602.00;5078961;28;20481;-55
2022/12/14 03:02:39;;;;;;;10.93;7.33;;;2.40;99.90;;;2.13;67.24;94599.50;5081423;28;20619;-55
2022/12/14 03:05:07;;;;;;;12.03;7.13;;;2.40;99.90;;;2.11;67.79;94597.00;5078274;28;20489;-55
2022/12/14 03:07:40;;;;;;;7.50;6.67;;;2.40;99.90;;;2.08;67.00;94604.97;5081910;28;20578;-58
2022/12/14 03:10:16;;;;;;;8.73;7.10;;;2.40;99.90;;;2.08;67.38;94612.75;5083751;28;20762;-56
2022/12/14 03:12:48;;;;;;;11.00;7.33;;;2.40;99.90;;;2.11;67.44;94602.19;5080104;28;20542;-57
2022/12/14 03:15:17;;;;;;;9.00;6.73;;;2.40;99.90;;;2.15;67.87;94600.22;5081618;28;20539;-55
2022/12/14 03:17:45;;;;;;;7.50;5.57;;;2.40;99.90;;;2.17;67.31;94600.13;5079806;28;20459;-54
2022/12/14 03:20:14;;;;;;;9.07;6.90;;;2.40;99.90;;;2.17;67.46;94589.75;5081332;28;20477;-56
2022/12/14 03:22:44;;;;;;;8.37;6.60;;;2.50;99.90;;;2.15;68.18;94600.22;5079284;28;20665;-54
2022/12/14 03:25:14;;;;;;;11.03;7.10;;;2.40;99.90;;;2.13;66.97;94600.31;5078602;28;20505;-56
2022/12/14 03:27:43;;;;;;;9.27;7.10;;;2.40;99.90;;;2.14;66.43;94596.81;5077917;28;20554;-58
2022/12/14 03:30:12;;;;;;;7.00;6.00;;;2.40;99.90;;;2.15;66.95;94592.44;5077351;28;20500;-58
2022/12/14 03:32:44;;;;;;;8.73;7.33;;;2.50;99.90;;;2.20;67.72;94597.34;5078281;28;20508;-53
2022/12/14 03:35:14;;;;;;;11.10;6.87;;;2.40;99.90;;;2.24;66.79;94596.25;5073677;28;20486;-55
2022/12/14 03:37:44;;;;;;;9.10;7.07;;;2.50;99.90;;;2.27;67.14;94596.06;5078341;28;21023;-57
2022/12/14 03:40:13;;;;;;;12.30;7.80;;;2.50;99.90;;;2.30;67.00;94608.84;5082997;28;21082;-57
2022/12/14 03:42:47;;;;;;;17.03;8.20;;;2.60;99.90;;;2.35;67.41;94601.59;5078960;28;20462;-57
2022/12/14 03:45:18;;;;;;;11.93;7.97;;;2.60;99.90;;;2.41;66.58;94600.38;5079128;28;20551;-54
2022/12/14 03:47:56;;;;;;;12.37;8.60;;;2.70;99.90;;;2.44;66.50;94592.38;5076399;28;20938;-58
2022/12/14 03:50:25;;;;;;;13.23;8.87;;;2.70;99.90;;;2.43;66.48;94586.38;5079988;28;20475;-58
2022/12/14 03:52:56;;;;;;;13.33;9.50;;;2.70;99.90;;;2.46;66.71;94593.97;5072378;28;20450;-55
2022/12/14 03:55:26;;;;;;;13.93;9.93;;;2.70;99.90;;;2.43;66.63;94585.53;5075060;28;20471;-57
2022/12/14 03:58:08;;;;;;;29.27;9.80;;;2.70;99.90;;;2.39;66.09;94586.66;5079766;28;20454;-56
2022/12/14 04:00:39;;;;;;;19.67;10.90;;;2.70;99.90;;;2.29;66.35;94594.19;5079667;28;20997;-56
2022/12/14 04:03:10;;;;;;;17.83;10.87;;;2.60;99.90;;;2.29;66.07;94604.56;5078170;28;20435;-56
2022/12/14 04:05:40;;;;;;;18.47;10.73;;;2.60;99.90;;;2.27;65.75;94596.06;5081644;28;20470;-58
2022/12/14 04:08:11;;;;;;;14.87;9.80;;;2.60;99.90;;;2.27;66.31;94603.84;5079381;28;20466;-57
2022/12/14 04:19:05;;;;;;;12.30;8.23;;;2.60;99.90;;;2.33;65.60;94596.47;5079787;28;20445;-58
2022/12/14 04:21:37;;;;;;;10.27;7.27;;;2.60;99.90;;;2.35;66.37;94598.97;5076804;28;20569;-57
2022/12/14 04:26:57;;;;;;;10.43;7.73;;;2.60;99.90;;;2.35;65.53;94604.19;5080594;28;20437;-54
2022/12/14 04:32:19;;;;;;;11.27;8.30;;;2.60;99.90;;;2.36;65.82;94603.25;5055975;28;21061;-57
2022/12/14 04:34:50;;;;;;;7.53;6.77;;;2.70;99.90;;;2.37;65.14;94610.13;5073091;28;20915;-57
2022/12/14 04:37:20;;;;;;;12.17;8.27;;;2.70;99.90;;;2.40;66.15;94606.47;5080119;28;20497;-55
2022/12/14 04:39:50;;;;;;;17.03;6.50;;;2.70;99.90;;;2.44;66.29;94613.97;5077052;28;20478;-53
2022/12/14 04:42:17;;;;;;;11.47;7.73;;;2.70;99.90;;;2.50;65.55;94617.97;5074914;28;20458;-54
2022/12/14 04:44:48;;;;;;;12.93;8.13;;;2.70;99.90;;;2.55;65.60;94613.28;5077556;28;20474;-57
2022/12/14 04:47:16;;;;;;;9.40;7.70;;;2.80;99.90;;;2.63;65.68;94618.00;5080846;28;20450;-57
2022/12/14 04:49:49;;;;;;;10.20;7.10;;;2.80;99.90;;;2.64;65.85;94611.88;5076042;28;20483;-56
2022/12/14 04:52:18;;;;;;;11.13;7.60;;;2.90;99.90;;;2.64;65.63;94604.09;5081228;28;20573;-54
2022/12/14 04:54:48;;;;;;;9.67;7.70;;;2.90;99.80;;;2.62;64.87;94605.97;5077440;28;20467;-58
2022/12/14 04:57:18;;;;;;;10.17;7.50;;;2.90;99.80;;;2.60;64.86;94610.41;5078228;28;20529;-53
2022/12/14 04:59:46;;;;;;;18.80;7.17;;;2.90;99.80;;;2.57;65.80;94598.47;5079376;28;20470;-58
2022/12/14 05:02:19;;;;;;;10.00;7.50;;;2.80;99.80;;;2.55;64.90;94609.88;5079908;28;20503;-57
2022/12/14 05:04:54;;;;;;;12.67;8.27;;;2.80;99.70;;;2.51;65.88;94606.66;5075949;28;21189;-55
2022/12/14 05:07:33;;;;;;;11.67;8.10;;;2.80;99.90;;;2.50;65.44;94594.59;5079534;28;20473;-58
2022/12/14 05:10:04;;;;;;;10.87;8.10;;;2.80;99.90;;;2.54;66.46;94600.41;5079616;28;21068;-55
2022/12/14 05:12:36;;;;;;;12.90;8.53;;;2.80;99.90;;;2.59;67.39;94612.19;5077233;28;20550;-57
2022/12/14 05:15:06;;;;;;;15.00;8.03;;;2.80;99.90;;;2.67;66.30;94622.06;5079338;28;20527;-55
2022/12/14 05:17:36;;;;;;;11.90;9.10;;;2.90;99.90;;;2.74;66.01;94627.69;5071361;28;20451;-56
2022/12/14 05:20:06;;;;;;;11.90;9.13;;;3.00;99.90;;;2.80;66.09;94642.88;5077220;28;20552;-57
2022/12/14 05:22:33;;;;;;;10.67;8.80;;;3.00;99.90;;;2.85;65.71;94644.28;5077733;28;21037;-58
2022/12/14 05:25:00;;;;;;;13.43;8.10;;;3.10;99.90;;;2.90;66.56;94648.31;5081609;28;20465;-57
2022/12/14 05:27:27;;;;;;;21.00;12.33;;;3.10;99.90;;;2.91;67.02;94645.63;5077976;28;20454;-57
2022/12/14 05:29:55;;;;;;;21.50;11.63;;;3.20;99.90;;;2.90;66.33;94649.16;5079157;28;20666;-57
2022/12/14 05:32:22;;;;;;;21.53;11.93;;;3.10;99.90;;;2.89;66.19;94651.88;5077497;28;20550;-56
2022/12/14 05:34:49;;;;;;;22.77;12.60;;;3.10;99.90;;;2.88;66.25;94653.59;5078918;28;20485;-56
2022/12/14 05:37:18;;;;;;;13.20;9.70;;;3.10;99.90;;;2.85;66.93;94644.28;5078272;28;20530;-55
2022/12/14 05:39:45;;;;;;;20.60;10.67;;;3.10;99.90;;;2.77;65.67;94640.50;5077720;28;20472;-59
2022/12/14 05:42:13;;;;;;;24.20;10.90;;;3.00;99.90;;;2.65;67.00;94636.91;5080083;28;20450;-59
2022/12/14 05:44:40;;;;;;;18.30;11.63;;;3.00;99.90;;;2.55;67.59;94633.25;5073085;28;20603;-56
2022/12/14 05:47:07;;;;;;;19.00;12.00;;;2.90;99.90;;;2.53;67.55;94642.91;5078241;28;20450;-58
2022/12/14 05:49:35;;;;;;;16.50;10.90;;;2.80;99.90;;;2.51;68.17;94632.63;5074534;28;20474;-56
2022/12/14 05:52:02;;;;;;;16.90;11.13;;;2.80;99.90;;;2.53;68.24;94648.91;5078497;28;20520;-57
2022/12/14 05:54:31;;;;;;;17.27;10.80;;;2.80;99.90;;;2.57;67.42;94655.59;5076482;28;20477;-57
2022/12/14 05:56:58;;;;;;;17.10;11.90;;;2.80;99.90;;;2.63;67.39;94659.53;5078657;28;20462;-58
2022/12/14 05:59:25;;;;;;;18.37;11.50;;;2.90;99.90;;;2.64;67.34;94650.84;5076160;28;20454;-55
2022/12/14 06:01:52;;;;;;;21.30;12.70;;;2.90;99.90;;;2.63;67.08;94662.13;5078370;28;20537;-55
2022/12/14 06:04:20;;;;;;;15.87;10.60;;;2.90;99.90;;;2.59;68.33;94652.91;5076220;28;20482;-57
2022/12/14 06:06:47;;;;;;;15.60;10.73;;;2.90;99.90;;;2.55;67.92;94659.19;5079285;28;20521;-55
2022/12/14 06:09:15;;;;;;;15.70;10.13;;;2.80;99.90;;;2.46;67.51;94656.25;5075162;28;20546;-56
2022/12/14 06:11:44;;;;;;;12.23;9.50;;;2.80;99.90;;;2.37;67.42;94646.47;5078646;28;20496;-59
2022/12/14 06:14:12;;;;;;;16.37;10.40;;;2.70;99.90;;;2.28;67.69;94649.63;5075913;28;20462;-57
2022/12/14 06:16:42;;;;;;;14.43;9.60;;;2.60;99.90;;;2.14;69.11;94653.88;5079948;28;20542;-55
2022/12/14 06:19:09;;;;;;;16.03;9.50;;;2.60;99.90;;;2.07;69.56;94642.22;5072921;28;20966;-64
2022/12/14 06:21:37;;;;;;;13.40;10.67;;;2.40;99.90;;;2.02;69.99;94654.63;5079739;28;20500;-56
2022/12/14 06:24:06;;;;;;;12.80;9.87;;;2.40;99.90;;;2.05;70.36;94664.00;5084086;28;20446;-57
2022/12/14 06:26:35;;;;;;;13.77;10.60;;;2.40;99.90;;;2.11;70.96;94669.66;5083742;28;20457;-54
2022/12/14 06:29:04;;;;;;;16.30;11.03;;;2.40;99.90;;;2.18;70.31;94664.09;5079688;28;20470;-59
2022/12/14 06:31:32;;;;;;;13.80;10.57;;;2.40;99.90;;;2.22;70.78;94669.00;5082771;28;20493;-55
2022/12/14 06:34:01;;;;;;;14.93;10.40;;;2.50;99.90;;;2.25;70.67;94666.22;5080043;28;20884;-58
2022/12/14 06:36:30;;;;;;;17.57;12.80;;;2.50;99.90;;;2.30;70.09;94669.34;5082687;28;20927;-58
2022/12/14 06:38:58;;;;;;;19.50;12.07;;;2.60;99.90;;;2.34;71.11;94667.41;5080751;28;20530;-58
2022/12/14 06:41:25;;;;;;;15.87;12.17;;;2.60;99.90;;;2.33;70.26;94669.16;5081639;28;20454;-57
2022/12/14 06:43:53;;;;;;;16.03;11.17;;;2.60;99.90;;;2.30;70.34;94664.16;5077835;28;20451;-56
2022/12/14 06:46:22;;;;;;;14.63;10.10;;;2.60;99.90;;;2.27;70.00;94668.72;5081324;28;20881;-56
2022/12/14 06:48:50;;;;;;;17.40;10.90;;;2.60;99.90;;;2.26;70.37;94677.41;5079903;28;20455;-55
2022/12/14 06:51:17;;;;;;;14.40;10.17;;;2.50;99.90;;;2.24;70.21;94676.69;5080509;28;21039;-58
2022/12/14 06:53:45;;;;;;;16.77;11.03;;;2.50;99.90;;;2.22;70.71;94683.72;5081481;28;20459;-59
2022/12/14 06:56:13;;;;;;;18.30;11.70;;;2.50;99.90;;;2.25;70.92;94692.16;5082315;28;20569;-57
2022/12/14 06:58:40;;;;;;;17.60;12.10;;;2.50;99.90;;;2.28;70.25;94697.16;5074491;28;20658;-55
2022/12/14 07:01:11;;;;;;;20.70;15.00;;;2.50;99.90;;;2.31;70.78;94690.94;5078871;28;20483;-55
2022/12/14 07:03:40;;;;;;;26.13;16.50;;;2.60;99.90;;;2.31;70.57;94689.19;5082927;28;20450;-58
2022/12/14 07:06:08;;;;;;;25.57;16.10;;;2.60;99.90;;;2.32;70.65;94695.19;5078999;28;20475;-56
2022/12/14 07:08:37;;;;;;;22.53;15.43;;;2.60;99.90;;;2.28;70.12;94698.94;5081127;28;20454;-58
2022/12/14 07:11:04;;;;;;;29.57;16.43;;;2.50;99.90;;;2.22;70.17;94694.94;5078918;28;20479;-58
2022/12/14 07:13:32;;;;;;;25.80;16.07;;;2.50;99.90;;;2.18;69.09;94690.03;5082501;28;20837;-59
2022/12/14 07:15:59;;;;;;;20.33;13.70;;;2.50;99.90;;;2.12;70.09;94688.63;5079510;28;20528;-55
2022/12/14 07:18:26;;;;;;;25.53;14.83;;;2.40;99.90;;;2.04;70.41;94683.91;5082775;28;20450;-57
2022/12/14 07:20:59;;;;;;;18.43;12.77;;;2.40;99.90;;;2.00;71.17;94691.97;5079249;28;20502;-55
2022/12/14 07:23:27;;;;;;;18.90;11.63;;;2.30;99.90;;;1.96;71.03;94701.69;5077530;28;20888;-55
2022/12/14 07:26:03;;;;;;;22.00;14.20;;;2.30;99.90;;;1.94;72.04;94698.38;5080927;28;20462;-54
2022/12/14 07:28:30;;;;;;;24.00;15.87;;;2.30;99.90;;;1.97;70.92;94686.03;5080271;28;20457;-58
2022/12/14 07:30:58;;;;;;;23.20;15.20;;;2.30;99.90;;;2.03;70.31;94687.44;5081279;28;20465;-55
2022/12/14 07:33:25;;;;;;;21.40;13.70;;;2.30;99.90;;;2.07;71.64;94696.69;5078981;28;20578;-56
2022/12/14 07:35:53;;;;;;;18.17;14.03;;;2.30;99.90;;;2.13;70.48;94708.47;5080874;28;20536;-54
2022/12/14 07:38:22;;;;;;;16.40;12.27;;;2.40;99.90;;;2.18;70.50;94698.63;5079631;28;20462;-58
2022/12/14 07:40:49;;;;;;;20.53;13.53;;;2.50;99.90;;;2.21;70.34;94705.41;5081151;28;20474;-57
2022/12/14 07:43:17;;;;;;;22.80;15.87;;;2.50;99.90;;;2.26;70.66;94703.34;5079016;28;20542;-58
2022/12/14 07:45:45;;;;;;;30.90;18.77;;;2.50;99.90;;;2.34;70.01;94698.56;5078346;28;21017;-58
2022/12/14 07:48:12;;;;;;;30.00;19.93;;;2.60;99.90;;;2.38;70.44;94702.59;5078560;28;20462;-56
2022/12/14 07:50:39;;;;;;;29.37;18.10;;;2.60;99.90;;;2.40;70.14;94705.09;5079451;28;20466;-55
2022/12/14 07:53:06;;;;;;;23.93;16.23;;;2.70;99.90;;;2.35;69.02;94705.38;5079100;28;20512;-58
2022/12/14 07:55:36;;;;;;;32.33;17.90;;;2.60;99.90;;;2.31;69.71;94696.16;5082279;28;20889;-55
2022/12/14 07:58:04;;;;;;;23.47;16.97;;;2.60;99.90;;;2.29;70.20;94704.03;5077589;28;20451;-56
2022/12/14 08:00:31;;;;;;;34.03;19.90;;;2.60;99.90;;;2.31;71.24;94714.31;5082162;28;20477;-58
2022/12/14 08:02:58;;;;;;;30.10;18.00;;;2.60;99.90;;;2.33;71.08;94713.28;5077769;28;20462;-55
2022/12/14 08:05:26;;;;;;;24.50;16.73;;;2.60;99.90;;;2.37;70.09;94720.88;5082614;28;20480;-57
2022/12/14 08:07:53;;;;;;;30.77;19.67;;;2.60;99.90;;;2.43;70.54;94728.28;5077816;28;20457;-57
2022/12/14 08:10:20;;;;;;;31.17;21.77;;;2.70;99.90;;;2.47;70.80;94725.41;5082004;28;20554;-56
2022/12/14 08:12:51;;;;;;;28.73;20.50;;;2.70;99.90;;;2.53;70.00;94721.59;5077664;28;20516;-54
2022/12/14 08:15:18;;;;;;;33.67;19.70;;;2.80;99.90;;;2.59;70.82;94726.41;5081225;28;20462;-55
2022/12/14 08:17:46;;;;;;;25.50;17.97;;;2.80;99.90;;;2.63;70.66;94730.50;5078946;28;20455;-59
2022/12/14 08:20:13;;;;;;;27.73;16.03;;;2.90;99.90;;;2.65;69.63;94741.63;5080861;28;20477;-58
2022/12/14 08:22:40;;;;;;;26.80;16.40;;;2.90;99.90;;;2.69;69.84;94731.84;5078908;28;20451;-58
2022/12/14 08:25:09;;;;;;;24.67;16.67;;;2.90;99.90;;;2.72;69.88;94736.03;5083732;28;20466;-55
2022/12/14 08:27:36;;;;;;;24.13;15.47;;;3.00;99.90;;;2.70;69.37;94736.13;5079063;28;20462;-58
2022/12/14 08:30:07;;;;;;;24.90;14.60;;;2.90;99.90;;;2.62;70.41;94726.22;5080409;28;20481;-58
2022/12/14 08:32:34;;;;;;;36.37;17.67;;;2.90;99.90;;;2.56;69.89;94725.78;5077756;28;20481;-58
2022/12/14 08:35:02;;;;;;;30.67;19.20;;;2.80;99.90;;;2.49;70.26;94715.78;5080267;28;20584;-55
2022/12/14 08:37:29;;;;;;;30.90;17.70;;;2.80;99.90;;;2.51;69.76;94724.28;5079566;28;20466;-58
2022/12/14 08:39:56;;;;;;;34.03;18.83;;;2.80;99.90;;;2.56;69.63;94725.78;5079404;28;20539;-55
2022/12/14 08:42:24;;;;;;;26.63;18.03;;;2.80;99.90;;;2.55;70.13;94724.09;5078104;28;20450;-55
2022/12/14 08:44:51;;;;;;;27.83;17.20;;;2.80;99.90;;;2.53;69.93;94737.19;5076433;28;20879;-57
2022/12/14 08:47:19;;;;;;;30.17;19.33;;;2.80;99.90;;;2.54;70.36;94735.41;5079892;28;20495;-57
2022/12/14 08:49:47;;;;;;;23.83;17.17;;;2.80;99.90;;;2.54;71.25;94727.63;5077284;28;20878;-57
2022/12/14 08:52:15;;;;;;;27.87;17.00;;;2.80;99.90;;;2.65;70.42;94730.38;5080211;28;20489;-57
2022/12/14 08:54:42;;;;;;;30.07;17.20;;;2.90;99.90;;;2.69;70.48;94730.09;5077745;28;20479;-54
2022/12/14 08:57:09;;;;;;;26.33;18.17;;;2.90;99.90;;;2.75;70.45;94726.28;5076920;28;20463;-58
2022/12/14 08:59:37;;;;;;;29.03;19.60;;;3.00;99.90;;;2.77;69.61;94732.22;5073852;28;21042;-57
2022/12/14 09:02:04;;;;;;;36.23;20.23;;;3.00;99.90;;;2.82;70.14;94730.19;5078796;28;20881;-55
2022/12/14 09:04:34;;;;;;;29.40;18.27;;;3.10;99.90;;;2.82;69.34;94716.34;5077106;28;20505;-58
2022/12/14 09:07:02;;;;;;;34.90;20.43;;;3.00;99.90;;;2.83;70.14;94736.19;5080813;28;20461;-55
2022/12/14 09:09:29;;;;;;;30.10;17.17;;;3.10;99.90;;;2.83;69.64;94724.03;5076868;28;21066;-57
2022/12/14 09:12:02;;;;;;;33.00;17.43;;;3.10;99.90;;;2.81;69.50;94719.88;5080454;28;20454;-58
2022/12/14 09:14:29;;;;;;;24.80;15.27;;;3.10;99.90;;;2.82;69.32;94705.94;5077860;28;20591;-56
2022/12/14 09:16:57;;;;;;;23.50;15.10;;;3.00;99.90;;;2.82;70.35;94703.34;5080039;28;20450;-58
2022/12/14 09:19:25;;;;;;;23.50;14.83;;;3.00;99.90;;;2.80;69.27;94713.00;5077260;28;21006;-56
2022/12/14 09:21:53;;;;;;;27.47;16.90;;;3.00;99.90;;;2.77;69.55;94713.19;5077634;28;20455;-59
2022/12/14 09:24:23;;;;;;;28.50;15.57;;;3.00;99.90;;;2.74;70.18;94708.19;5078033;28;20469;-57
2022/12/14 09:26:50;;;;;;;30.93;16.50;;;3.00;99.90;;;2.75;69.80;94702.91;5080154;28;20461;-58
2022/12/14 09:29:18;;;;;;;30.60;15.43;;;3.00;99.90;;;2.74;69.87;94696.03;5077921;28;21057;-58
2022/12/14 09:31:46;;;;;;;29.57;16.67;;;3.00;99.90;;;2.67;69.52;94692.19;5078585;28;20946;-55
2022/12/14 09:34:13;;;;;;;22.87;14.50;;;3.00;99.90;;;2.59;70.59;94686.66;5078378;28;20875;-59
2022/12/14 09:36:41;;;;;;;21.40;14.90;;;2.90;99.90;;;2.59;70.14;94686.66;5079413;28;20458;-58
2022/12/14 09:39:13;;;;;;;25.90;15.40;;;2.90;99.90;;;2.63;69.92;94690.69;5078850;28;20516;-57
2022/12/14 09:41:57;;;;;;;22.30;14.17;;;2.90;99.90;;;2.69;70.02;94690.31;5080737;28;20449;-54
2022/12/14 09:44:34;;;;;;;25.03;15.37;;;2.90;99.90;;;2.70;70.13;94699.78;5073154;28;20462;-55
2022/12/14 09:47:05;;;;;;;21.30;13.83;;;2.90;99.90;;;2.72;70.70;94686.69;5078312;28;20465;-57
2022/12/14 09:49:34;;;;;;;23.30;14.47;;;3.00;99.90;;;2.72;69.51;94684.09;5072745;28;21047;-59
2022/12/14 09:52:05;;;;;;;19.40;13.20;;;3.00;99.90;;;2.70;70.23;94692.00;5079249;28;20461;-57
2022/12/14 09:54:36;;;;;;;22.80;14.67;;;3.00;99.90;;;2.73;71.01;94676.22;5076723;28;20479;-59
2022/12/14 09:57:08;;;;;;;23.83;15.83;;;3.00;99.90;;;2.77;69.73;94682.88;5079291;28;20458;-55
2022/12/14 09:59:36;;;;;;;29.20;16.67;;;3.00;99.90;;;2.83;70.98;94672.09;5076930;28;20565;-55
2022/12/14 10:02:33;;;;;;;26.90;17.20;;;3.00;99.90;;;2.91;71.05;94662.97;5083880;28;20446;-59
2022/12/14 10:05:18;;;;;;;25.93;16.60;;;3.10;99.90;;;2.99;70.84;94666.75;5081690;28;20481;-58
2022/12/14 10:07:50;;;;;;;33.70;19.87;;;3.20;99.90;;;3.08;69.30;94664.50;5080395;28;20983;-58
2022/12/14 10:10:25;;;;;;;30.13;20.07;;;3.30;99.90;;;3.10;69.95;94668.66;5081703;28;20477;-58
2022/12/14 10:12:59;;;;;;;36.20;20.37;;;3.30;99.90;;;3.13;69.49;94665.00;5080915;28;20997;-59
2022/12/14 10:15:30;;;;;;;37.77;20.70;;;3.30;99.90;;;3.17;70.61;94669.91;5079893;28;20461;-59
2022/12/14 10:18:42;;;;;;;27.03;18.37;;;3.40;99.90;;;3.20;70.94;94664.50;5076299;28;20512;-56
2022/12/14 10:21:12;;;;;;;34.90;20.33;;;3.40;99.90;;;3.26;69.51;94657.28;5067880;28;21138;-56
2022/12/14 10:23:41;;;;;;;31.23;21.40;;;3.50;99.90;;;3.29;70.25;94659.66;5074989;28;20958;-57
2022/12/14 10:26:14;;;;;;;30.20;18.67;;;3.50;99.90;;;3.34;69.78;94652.38;5079545;28;20473;-59
2022/12/14 10:28:44;;;;;;;24.63;15.83;;;3.50;99.90;;;3.33;69.62;94653.31;5073216;28;20450;-59
2022/12/14 10:31:15;;;;;;;24.97;15.23;;;3.50;99.90;;;3.26;69.19;94654.66;5079230;28;20542;-58
2022/12/14 10:33:44;;;;;;;22.07;14.07;;;3.50;99.90;;;3.16;69.58;94650.06;5073527;28;20478;-58
2022/12/14 10:36:19;;;;;;;21.13;12.80;;;3.50;99.90;;;3.12;68.95;94656.41;5077802;28;20488;-58
2022/12/14 10:38:52;;;;;;;20.70;13.10;;;3.40;99.90;;;3.09;69.83;94646.19;5075656;28;20815;-56
2022/12/14 10:41:27;;;;;;;20.43;12.73;;;3.40;99.90;;;3.14;68.78;94648.50;5079899;28;20499;-59
2022/12/14 10:43:58;;;;;;;14.57;10.17;;;3.40;99.90;;;3.16;68.85;94644.88;5078064;28;20430;-59
2022/12/14 10:46:40;;;;;;;14.50;9.37;;;3.40;99.90;;;3.17;68.97;94638.72;5080417;28;20508;-59
2022/12/14 10:49:13;;;;;;;18.40;10.90;;;3.40;99.90;;;3.15;69.04;94629.38;5077652;28;20843;-58